Antwerp, New York
Current Conditions -  °F | °C
As of 7:58 PM on Wednesday 22 Oct 2014 (Local Time) from KGTB Reporting Station
Overcast Overcast  
Wind Chill: 41°   Ceiling: 3900
Heat Index: 46°   Visibility: 10mi
Dew Point: 38°   Wind: 9mph
Humidity: 75%   Direction: 40°NE
Pressure: 30.16"   Gusts: NA
Location:  44.2°N, 75.61°W
Report Text: KGTB 222358Z AUTO 04008KT 10SM BKN039 OVC150 08/03 A3016 RMK AO2 SLP218 T00750034 10087 20075 58002
Loading
Personal Weather Stations






























Interactive Weather Map
Tropical Storm Tracking
New forecast layout! Learn more

10-Day Weather Forecast

Advertisements
Track Severe Weather on mobile